Terminal Aerodrome Forecast
Issued by NWS Charleston, WV

Current Version | Previous Version | Graphics & Text | Print | Product List | Glossary On
Versions: 1 2 3 4 5 6 7 8 9 10 11 12 13 14 15 16 17 18 19 20
000
FTUS41 KRLX 152300
TAFHTS
TAF
KHTS 152324Z 1600/1624 32008KT P6SM BKN050
     FM160300 34004KT P6SM BKN045
     FM160500 00000KT P6SM SKC
     FM161600 08005KT P6SM SKC=

USA.gov is the U.S. government's official web portal to all federal, state and local government web resources and services.